Time;durP1;ratioP1;P1;durP2;ratioP2;P2;SDS_P1;SDS_P2;PMS_P1;PMS_P2;Temp;Humidity;BMP_temperature;BMP_pressure;BME280_temperature;BME280_humidity;BME280_pressure;Samples;Min_cycle;Max_cycle;Signal;HPM_P1;HPM_P2
2023/10/13 00:01:20;;;;;;;18.75;10.27;;;16.20;99.90;;;;;;5054764;28;20169;-35
2023/10/13 00:03:46;;;;;;;25.58;8.90;;;16.20;99.90;;;;;;5053771;28;20397;-34
2023/10/13 00:06:12;;;;;;;20.00;9.73;;;16.30;99.90;;;;;;5060530;28;20109;-36
2023/10/13 00:08:39;;;;;;;22.67;9.27;;;16.30;99.90;;;;;;5065648;28;20060;-35
2023/10/13 00:11:05;;;;;;;25.42;9.88;;;16.30;99.90;;;;;;5063252;28;20059;-33
2023/10/13 00:13:41;;;;;;;22.83;9.23;;;16.30;99.90;;;;;;5060759;28;20491;-35
2023/10/13 00:16:09;;;;;;;21.33;9.32;;;16.30;99.90;;;;;;5067277;28;20131;-35
2023/10/13 00:18:41;;;;;;;17.17;9.07;;;16.30;99.90;;;;;;5064109;28;20099;-34
2023/10/13 00:21:15;;;;;;;22.23;9.52;;;16.30;99.90;;;;;;5064575;28;20048;-35
2023/10/13 00:24:05;;;;;;;19.30;8.88;;;16.30;99.90;;;;;;5073064;28;20044;-35
2023/10/13 00:26:29;;;;;;;17.58;9.43;;;16.30;99.90;;;;;;5066892;28;20047;-35
2023/10/13 00:31:42;;;;;;;24.58;9.32;;;16.30;99.90;;;;;;5079219;28;20047;-35
2023/10/13 00:34:15;;;;;;;20.30;9.10;;;16.30;99.90;;;;;;5071930;28;20121;-35
2023/10/13 00:39:25;;;;;;;23.45;10.48;;;16.30;99.90;;;;;;5078827;28;20048;-35
2023/10/13 00:41:59;;;;;;;19.70;10.15;;;16.30;99.90;;;;;;5080145;28;20655;-35
2023/10/13 00:44:48;;;;;;;20.47;10.43;;;16.30;99.90;;;;;;5088633;28;20052;-35
2023/10/13 00:47:17;;;;;;;20.88;9.82;;;16.30;99.90;;;;;;5083771;28;20497;-35
2023/10/13 00:49:47;;;;;;;21.08;9.65;;;16.30;99.90;;;;;;5076405;28;20127;-35
2023/10/13 00:52:15;;;;;;;26.23;11.18;;;16.30;99.90;;;;;;5075582;28;20048;-35
2023/10/13 00:54:45;;;;;;;21.60;10.65;;;16.30;99.90;;;;;;5085748;28;20493;-35
2023/10/13 00:57:28;;;;;;;21.17;10.80;;;16.40;99.90;;;;;;5068931;28;20052;-35
2023/10/13 00:59:57;;;;;;;26.60;12.15;;;16.30;99.90;;;;;;5063307;28;20422;-40
2023/10/13 01:05:04;;;;;;;18.98;9.35;;;16.30;99.90;;;;;;5072198;28;20093;-35
2023/10/13 01:07:30;;;;;;;22.20;10.43;;;16.30;99.90;;;;;;5072761;28;20052;-35
2023/10/13 01:09:56;;;;;;;16.92;9.65;;;16.30;99.90;;;;;;5073059;28;30153;-36
2023/10/13 01:12:24;;;;;;;19.20;10.25;;;16.30;99.90;;;;;;5082439;28;20546;-35
2023/10/13 01:14:50;;;;;;;18.40;10.02;;;16.30;99.90;;;;;;5072850;28;20093;-34
2023/10/13 01:17:16;;;;;;;16.08;9.52;;;16.40;99.90;;;;;;5056191;28;20048;-35
2023/10/13 01:19:43;;;;;;;18.75;9.35;;;16.40;99.90;;;;;;5082103;28;20128;-35
2023/10/13 01:22:09;;;;;;;20.17;9.90;;;16.40;99.90;;;;;;5087241;28;20086;-44
2023/10/13 01:24:35;;;;;;;21.02;10.07;;;16.40;99.90;;;;;;5065843;28;20143;-34
2023/10/13 01:27:25;;;;;;;17.83;8.93;;;16.40;99.90;;;;;;5067575;28;20123;-37
2023/10/13 01:29:55;;;;;;;17.13;9.88;;;16.40;99.90;;;;;;5044854;28;20048;-34
2023/10/13 01:32:22;;;;;;;17.55;9.63;;;16.30;99.90;;;;;;5066962;28;20567;-35
2023/10/13 01:34:49;;;;;;;19.02;9.68;;;16.30;99.90;;;;;;5062794;28;20068;-36
2023/10/13 01:37:16;;;;;;;18.08;9.45;;;16.30;99.90;;;;;;5056851;28;20048;-36
2023/10/13 01:39:42;;;;;;;17.90;9.65;;;16.30;99.90;;;;;;5050195;28;20487;-34
2023/10/13 01:42:07;;;;;;;18.95;10.10;;;16.30;99.90;;;;;;5066759;28;20044;-34
2023/10/13 01:44:33;;;;;;;18.48;9.68;;;16.30;99.90;;;;;;5059317;28;20040;-34
2023/10/13 01:47:09;;;;;;;17.70;9.80;;;16.30;99.90;;;;;;5063872;28;20125;-35
2023/10/13 01:50:14;;;;;;;18.77;9.95;;;16.30;99.90;;;;;;5049846;28;20453;-35
2023/10/13 01:52:29;;;;;;;17.63;9.10;;;16.30;99.90;;;;;;5058900;28;20107;-35
2023/10/13 01:54:55;;;;;;;17.42;9.75;;;16.30;99.90;;;;;;5050436;28;20395;-35
2023/10/13 01:57:23;;;;;;;22.33;10.65;;;16.30;99.90;;;;;;5061476;28;20056;-35
2023/10/13 01:59:49;;;;;;;18.05;9.85;;;16.30;99.90;;;;;;5064000;28;20056;-35
2023/10/13 02:02:28;;;;;;;19.90;10.02;;;16.30;99.90;;;;;;5064403;28;20049;-35
2023/10/13 02:05:00;;;;;;;18.58;10.27;;;16.30;99.90;;;;;;5082393;28;20094;-35
2023/10/13 02:07:34;;;;;;;20.13;10.00;;;16.30;99.90;;;;;;5059080;28;20055;-35
2023/10/13 02:10:04;;;;;;;15.50;9.77;;;16.30;99.90;;;;;;5068177;28;20489;-35
2023/10/13 02:12:42;;;;;;;17.92;9.88;;;16.30;99.90;;;;;;5057814;28;20061;-35
2023/10/13 02:15:12;;;;;;;18.60;9.45;;;16.30;99.90;;;;;;5056398;28;20059;-35
2023/10/13 02:17:42;;;;;;;17.25;9.48;;;16.30;99.90;;;;;;5065797;28;20498;-35
2023/10/13 02:20:14;;;;;;;16.42;9.30;;;16.30;99.90;;;;;;5062545;28;20076;-35
2023/10/13 02:22:48;;;;;;;;;;;16.30;99.90;;;;;;5072942;28;20052;-35
2023/10/13 02:25:35;;;;;;;18.10;10.27;;;16.30;99.90;;;;;;5063710;28;20393;-35
2023/10/13 02:28:01;;;;;;;17.75;9.27;;;16.30;99.90;;;;;;5068132;28;20162;-35
2023/10/13 02:30:27;;;;;;;17.98;9.57;;;16.30;99.90;;;;;;5067500;28;20064;-35
2023/10/13 02:32:55;;;;;;;19.52;9.35;;;16.30;99.90;;;;;;5048509;28;20060;-35
2023/10/13 02:35:29;;;;;;;15.85;8.98;;;16.30;99.90;;;;;;5066939;28;20055;-35
2023/10/13 02:37:58;;;;;;;15.90;8.00;;;16.30;99.90;;;;;;5067579;28;20105;-35
2023/10/13 02:40:24;;;;;;;15.65;8.05;;;16.30;99.90;;;;;;5068562;28;20044;-35
2023/10/13 02:42:50;;;;;;;13.27;7.68;;;16.30;99.90;;;;;;5072306;28;20074;-35
2023/10/13 02:45:17;;;;;;;17.92;7.85;;;16.30;99.90;;;;;;5067107;28;20051;-35
2023/10/13 02:47:44;;;;;;;16.48;6.93;;;16.30;99.90;;;;;;5067300;28;20641;-35
2023/10/13 02:50:12;;;;;;;16.90;8.05;;;16.30;99.90;;;;;;5069599;28;20553;-35
2023/10/13 02:52:41;;;;;;;17.15;8.82;;;16.30;99.90;;;;;;5073572;28;20072;-35
2023/10/13 02:55:10;;;;;;;17.38;8.90;;;16.30;99.90;;;;;;5071524;28;20044;-35
2023/10/13 02:57:36;;;;;;;16.27;8.55;;;16.30;99.90;;;;;;5066306;28;20059;-34
2023/10/13 03:00:15;;;;;;;17.35;9.07;;;16.30;99.90;;;;;;5064580;28;20048;-34
2023/10/13 03:02:47;;;;;;;16.45;9.07;;;16.30;99.90;;;;;;5062827;28;20056;-34
2023/10/13 03:05:13;;;;;;;20.63;10.80;;;16.20;99.90;;;;;;5048805;28;20068;-35
2023/10/13 03:07:43;;;;;;;18.98;9.02;;;16.20;99.90;;;;;;5067012;28;20076;-34
2023/10/13 03:10:10;;;;;;;17.45;8.80;;;16.20;99.90;;;;;;5064649;28;20052;-35
2023/10/13 03:12:37;;;;;;;17.65;9.45;;;16.20;99.90;;;;;;5064108;28;20125;-35
2023/10/13 03:15:12;;;;;;;15.38;8.82;;;16.20;99.90;;;;;;5066489;28;20498;-36
2023/10/13 03:17:43;;;;;;;18.27;9.07;;;16.20;99.90;;;;;;5067008;28;20494;-35
2023/10/13 03:20:15;;;;;;;21.67;9.00;;;16.30;99.90;;;;;;5045200;28;20076;-35
2023/10/13 03:22:44;;;;;;;17.50;9.88;;;16.30;99.90;;;;;;5075171;28;20083;-35
2023/10/13 03:25:23;;;;;;;19.23;8.90;;;16.30;99.90;;;;;;5045566;28;20135;-35
2023/10/13 03:30:18;;;;;;;17.08;9.50;;;16.30;99.90;;;;;;5063035;28;20113;-35
2023/10/13 03:32:49;;;;;;;18.58;9.07;;;16.30;99.90;;;;;;5042315;28;20059;-35
2023/10/13 03:35:24;;;;;;;17.75;9.85;;;16.30;99.90;;;;;;5030072;28;20111;-34
2023/10/13 03:37:51;;;;;;;17.95;9.80;;;16.30;99.90;;;;;;5052610;28;20086;-34
2023/10/13 03:40:35;;;;;;;18.90;9.07;;;16.30;99.90;;;;;;5048431;28;20049;-34
2023/10/13 03:43:09;;;;;;;17.33;10.07;;;16.30;99.90;;;;;;5040154;28;20060;-34
2023/10/13 03:45:38;;;;;;;20.45;9.52;;;16.30;99.90;;;;;;5043786;28;20049;-34
2023/10/13 03:48:09;;;;;;;20.50;9.07;;;16.30;99.90;;;;;;5057598;28;20055;-34
2023/10/13 03:50:57;;;;;;;18.65;9.43;;;16.20;99.90;;;;;;5056664;28;20045;-34
2023/10/13 03:53:25;;;;;;;14.63;8.85;;;16.20;99.90;;;;;;5049148;28;20514;-34
2023/10/13 03:56:07;;;;;;;15.43;8.73;;;16.20;99.90;;;;;;5056002;28;20138;-35
2023/10/13 03:58:34;;;;;;;12.45;7.53;;;16.20;99.90;;;;;;5034678;28;20577;-35
2023/10/13 04:01:00;;;;;;;13.27;7.68;;;16.20;99.90;;;;;;5044706;28;20586;-34
2023/10/13 04:03:38;;;;;;;15.45;9.10;;;16.20;99.90;;;;;;5038197;28;20057;-34
2023/10/13 04:06:08;;;;;;;15.35;8.10;;;16.20;99.90;;;;;;5043830;28;20094;-35
2023/10/13 04:16:39;;;;;;;15.80;8.63;;;16.20;99.90;;;;;;5053450;28;20040;-35
2023/10/13 04:21:55;;;;;;;14.07;8.65;;;16.20;99.90;;;;;;5062273;28;20045;-34
2023/10/13 04:25:00;;;;;;;17.15;8.52;;;16.20;99.90;;;;;;5060036;28;20501;-35
2023/10/13 04:27:53;;;;;;;15.15;8.23;;;16.10;99.90;;;;;;5062050;28;20865;-35
2023/10/13 04:30:38;;;;;;;13.35;7.95;;;16.20;99.90;;;;;;5060935;28;20572;-35
2023/10/13 04:33:17;;;;;;;15.02;8.20;;;16.10;99.90;;;;;;5064732;28;20713;-34
2023/10/13 04:35:57;;;;;;;17.42;8.48;;;16.10;99.90;;;;;;5063413;28;20049;-35
2023/10/13 04:38:33;;;;;;;13.52;8.10;;;16.10;99.90;;;;;;5073894;28;20093;-35
2023/10/13 04:41:01;;;;;;;13.75;7.50;;;16.10;99.90;;;;;;5063437;28;20045;-35
2023/10/13 04:43:33;;;;;;;12.98;8.20;;;16.10;99.90;;;;;;5064586;28;20418;-35
2023/10/13 04:46:14;;;;;;;13.25;6.82;;;16.10;99.90;;;;;;5068638;28;20478;-35
2023/10/13 04:48:46;;;;;;;13.52;7.72;;;16.10;99.90;;;;;;5070007;28;20053;-35
2023/10/13 04:54:12;;;;;;;12.77;7.97;;;16.10;99.90;;;;;;5017602;28;20793;-37
2023/10/13 04:56:59;;;;;;;23.30;7.95;;;16.00;99.90;;;;;;5048653;28;20048;-35
2023/10/13 04:59:37;;;;;;;12.05;7.03;;;16.00;99.90;;;;;;5067089;28;20055;-34
2023/10/13 06:30:17;;;;;;;5.00;1.83;;;16.30;99.90;;;;;;4966696;28;20145;-34
2023/10/13 06:32:46;;;;;;;4.75;2.03;;;16.40;99.90;;;;;;5018483;28;20152;-35
2023/10/13 06:35:23;;;;;;;3.92;1.90;;;16.40;99.90;;;;;;5062631;28;20056;-37
2023/10/13 06:37:52;;;;;;;6.00;2.20;;;16.40;99.90;;;;;;5046017;28;20068;-36
2023/10/13 06:42:47;;;;;;;6.03;2.30;;;16.50;99.90;;;;;;5068044;28;20159;-35
2023/10/13 06:45:12;;;;;;;6.32;2.15;;;16.60;99.90;;;;;;5065347;28;20106;-35
2023/10/13 06:47:44;;;;;;;6.50;2.40;;;16.60;99.90;;;;;;5066320;28;20064;-35
2023/10/13 06:50:15;;;;;;;6.88;1.88;;;16.60;99.90;;;;;;5066886;28;20060;-34
2023/10/13 06:52:44;;;;;;;11.38;2.63;;;16.60;99.90;;;;;;5064340;28;20157;-34
2023/10/13 06:55:16;;;;;;;4.57;2.35;;;16.60;99.90;;;;;;5065276;28;20056;-35
2023/10/13 06:57:44;;;;;;;4.38;2.20;;;16.60;99.90;;;;;;5063430;28;20083;-35
2023/10/13 07:00:27;;;;;;;7.22;2.33;;;16.60;99.90;;;;;;5068752;28;20502;-35
2023/10/13 07:02:53;;;;;;;8.38;2.72;;;16.60;99.90;;;;;;5064894;28;20396;-36
2023/10/13 07:05:19;;;;;;;7.20;2.50;;;16.60;99.90;;;;;;5065327;28;20052;-37
2023/10/13 07:07:45;;;;;;;7.57;2.28;;;16.60;99.90;;;;;;5057606;28;20049;-35
2023/10/13 07:10:13;;;;;;;8.43;2.55;;;16.60;99.90;;;;;;5044618;28;20136;-37
2023/10/13 07:12:43;;;;;;;6.70;2.53;;;16.60;99.90;;;;;;5062462;28;20170;-36
2023/10/13 07:15:19;;;;;;;9.18;2.40;;;16.70;99.90;;;;;;5055368;28;20129;-36
2023/10/13 07:17:55;;;;;;;4.93;2.65;;;16.60;99.90;;;;;;5067178;28;20044;-35
2023/10/13 07:20:24;;;;;;;7.15;2.35;;;16.60;99.90;;;;;;5064890;28;20170;-36
2023/10/13 07:23:06;;;;;;;7.55;2.90;;;16.60;99.90;;;;;;5056321;28;20064;-36
2023/10/13 07:25:32;;;;;;;7.90;3.55;;;16.70;99.90;;;;;;5052063;28;20149;-36
2023/10/13 07:28:03;;;;;;;8.98;3.63;;;16.70;99.90;;;;;;5058285;28;20053;-36
2023/10/13 07:30:31;;;;;;;8.30;3.00;;;16.70;99.90;;;;;;5051904;28;20059;-36
2023/10/13 07:33:00;;;;;;;9.07;3.22;;;16.70;99.90;;;;;;5061083;28;20418;-35
2023/10/13 07:35:25;;;;;;;8.70;2.92;;;16.70;99.90;;;;;;5063008;28;20491;-37
2023/10/13 07:37:55;;;;;;;8.07;3.03;;;16.70;99.90;;;;;;5059096;28;20095;-36
2023/10/13 07:42:50;;;;;;;6.63;3.17;;;16.70;99.90;;;;;;5046957;28;20549;-35
2023/10/13 07:45:25;;;;;;;7.65;2.80;;;16.70;99.90;;;;;;5053025;28;20127;-35
2023/10/13 07:47:54;;;;;;;8.63;2.97;;;16.70;99.90;;;;;;5058519;28;20048;-35
2023/10/13 07:50:25;;;;;;;9.60;3.17;;;16.70;99.90;;;;;;5059362;28;20048;-37
2023/10/13 07:53:19;;;;;;;9.65;3.53;;;16.70;99.90;;;;;;5048685;28;20486;-35
2023/10/13 07:55:47;;;;;;;8.93;2.83;;;16.70;99.90;;;;;;5050776;28;20052;-36
2023/10/13 07:58:13;;;;;;;11.00;3.75;;;16.70;99.90;;;;;;5038010;28;20049;-35
2023/10/13 08:05:57;;;;;;;8.18;3.15;;;16.70;99.90;;;;;;5058554;28;20422;-35
2023/10/13 08:08:25;;;;;;;7.72;3.03;;;16.70;99.90;;;;;;5040121;28;20080;-34
2023/10/13 08:11:08;;;;;;;9.80;3.63;;;16.70;99.90;;;;;;5055823;28;20048;-35
2023/10/13 08:13:37;;;;;;;10.95;3.35;;;16.70;99.90;;;;;;5059864;28;20056;-36
2023/10/13 08:16:09;;;;;;;9.40;3.65;;;16.70;99.90;;;;;;5055583;28;20056;-36
2023/10/13 08:18:35;;;;;;;;;;;16.70;99.90;;;;;;5049624;28;20037;-35
2023/10/13 08:21:05;;;;;;;9.88;4.00;;;16.80;99.90;;;;;;5043129;28;19924;-36
2023/10/13 08:30:21;;;;;;;9.98;3.78;;;16.90;99.90;;;;;;5060030;28;21581;-35
2023/10/13 08:40:02;;;;;;;7.97;4.30;;;17.10;99.90;;;;;;5059848;28;20087;-35
2023/10/13 08:48:07;;;;;;;8.68;4.13;;;17.30;99.90;;;;;;5064799;28;20086;-35
2023/10/13 08:53:44;;;;;;;7.20;3.60;;;17.50;99.90;;;;;;5061692;28;20552;-35
2023/10/13 09:04:22;;;;;;;11.60;3.30;;;17.70;99.90;;;;;;5057688;28;20056;-42
2023/10/13 09:09:35;;;;;;;6.28;2.70;;;17.90;99.90;;;;;;5063101;28;20506;-35
2023/10/13 09:18:13;;;;;;;9.07;3.42;;;18.10;99.90;;;;;;5059262;28;20128;-36
2023/10/13 09:23:19;;;;;;;8.85;2.88;;;18.10;99.90;;;;;;5059704;28;20542;-35
2023/10/13 09:25:57;;;;;;;10.43;3.50;;;18.10;99.90;;;;;;5061571;28;20040;-35
2023/10/13 09:28:26;;;;;;;7.22;3.03;;;18.10;99.90;;;;;;5060486;28;20053;-35
2023/10/13 09:30:58;;;;;;;9.52;3.38;;;18.10;99.90;;;;;;5061506;28;20798;-36
2023/10/13 09:33:32;;;;;;;8.80;2.92;;;18.10;99.90;;;;;;5059000;28;20144;-35
2023/10/13 09:35:59;;;;;;;8.07;3.17;;;18.10;99.90;;;;;;5053694;28;21606;-35
2023/10/13 09:38:31;;;;;;;7.78;3.15;;;18.10;99.90;;;;;;5052073;28;20045;-35
2023/10/13 09:40:58;;;;;;;12.23;3.92;;;18.10;99.90;;;;;;5050279;28;20106;-35
2023/10/13 09:43:28;;;;;;;7.75;2.75;;;18.10;99.90;;;;;;5055116;28;20608;-34
2023/10/13 09:49:06;;;;;;;6.82;2.55;;;18.10;99.90;;;;;;5026712;28;20087;-35
2023/10/13 09:51:32;;;;;;;12.18;3.60;;;18.20;99.90;;;;;;5033496;28;20144;-35
2023/10/13 09:54:16;;;;;;;10.90;2.88;;;18.20;99.90;;;;;;5054305;28;20117;-36
2023/10/13 09:56:57;;;;;;;15.10;3.85;;;18.30;99.90;;;;;;5043167;28;20057;-35
2023/10/13 09:59:36;;;;;;;9.95;3.00;;;18.30;99.90;;;;;;5043610;28;20048;-35
2023/10/13 10:02:08;;;;;;;9.27;3.10;;;18.40;99.90;;;;;;5058651;28;20052;-35
2023/10/13 10:04:51;;;;;;;11.88;3.58;;;18.40;99.90;;;;;;5057040;28;20056;-35
2023/10/13 10:07:29;;;;;;;;;;;18.40;99.90;;;;;;5045136;28;20064;-40
2023/10/13 10:09:58;;;;;;;12.52;3.38;;;18.50;99.90;;;;;;5029775;28;19925;-53
2023/10/13 10:12:34;;;;;;;8.95;3.00;;;18.60;99.90;;;;;;5061446;28;20545;-34
2023/10/13 10:15:30;;;;;;;9.98;3.35;;;18.60;99.90;;;;;;5060674;28;20564;-35
2023/10/13 10:17:56;;;;;;;8.05;3.15;;;18.70;99.90;;;;;;5062057;28;20064;-34
2023/10/13 10:20:42;;;;;;;8.80;3.58;;;18.70;99.90;;;;;;5062076;28;20118;-35
2023/10/13 10:23:21;;;;;;;7.25;2.72;;;18.70;99.90;;;;;;5063352;28;20672;-35
2023/10/13 10:25:47;;;;;;;9.50;3.08;;;18.70;99.90;;;;;;5068240;28;20095;-35
2023/10/13 10:28:15;;;;;;;8.90;2.80;;;18.70;99.90;;;;;;5062638;28;20052;-35
2023/10/13 10:30:42;;;;;;;7.97;2.20;;;18.70;99.90;;;;;;5067710;28;20109;-34
2023/10/13 10:33:12;;;;;;;8.35;3.10;;;18.70;99.90;;;;;;5044825;28;20052;-35
2023/10/13 10:35:59;;;;;;;9.88;3.60;;;18.70;99.90;;;;;;5063932;28;20047;-36
2023/10/13 10:38:25;;;;;;;11.32;3.50;;;18.70;99.90;;;;;;5063577;28;20127;-36
2023/10/13 10:40:58;;;;;;;8.80;2.92;;;18.70;99.90;;;;;;5061999;28;20545;-35
2023/10/13 10:43:41;;;;;;;16.17;3.33;;;18.80;99.90;;;;;;5038479;28;20048;-36
2023/10/13 10:46:28;;;;;;;13.23;3.50;;;18.80;99.90;;;;;;5063292;28;20098;-36
2023/10/13 10:49:00;;;;;;;11.82;3.35;;;18.80;99.90;;;;;;5064055;28;20047;-36
2023/10/13 10:51:31;;;;;;;8.30;2.67;;;18.80;99.90;;;;;;5064973;28;20052;-36
2023/10/13 10:54:11;;;;;;;11.90;2.53;;;18.80;99.90;;;;;;5066867;28;20055;-35
2023/10/13 10:56:37;;;;;;;11.20;3.10;;;18.80;99.90;;;;;;5070436;28;20182;-35
2023/10/13 10:59:08;;;;;;;10.45;3.35;;;18.90;99.90;;;;;;5061531;28;20514;-36
2023/10/13 11:01:46;;;;;;;7.78;3.28;;;19.00;99.90;;;;;;5068211;28;20561;-35
2023/10/13 11:04:24;;;;;;;9.25;2.90;;;19.00;99.90;;;;;;5051014;28;20402;-35
2023/10/13 11:06:54;;;;;;;9.80;3.20;;;19.00;99.90;;;;;;5072035;28;20090;-35
2023/10/13 11:11:57;;;;;;;;;;;19.10;99.90;;;;;;5066408;28;20056;-35
2023/10/13 11:14:28;;;;;;;10.38;3.65;;;19.20;99.90;;;;;;5060955;28;19921;-35
2023/10/13 11:17:00;;;;;;;13.73;3.05;;;19.20;99.90;;;;;;5065401;28;20551;-35
2023/10/13 11:19:36;;;;;;;11.88;3.33;;;19.30;99.90;;;;;;5060408;28;20060;-35
2023/10/13 11:25:29;;;;;;;9.27;3.13;;;19.40;99.90;;;;;;5046533;28;20502;-34
2023/10/13 11:27:59;;;;;;;11.35;3.13;;;19.60;99.90;;;;;;5060631;28;20078;-34
2023/10/13 11:30:31;;;;;;;15.32;3.10;;;19.70;99.90;;;;;;5052953;28;20502;-34
2023/10/13 11:32:58;;;;;;;11.15;2.95;;;19.80;99.90;;;;;;5068610;28;20059;-34
2023/10/13 11:35:24;;;;;;;8.52;2.55;;;19.80;99.90;;;;;;5053824;28;21788;-35
2023/10/13 11:48:39;;;;;;;9.23;2.95;;;19.80;99.90;;;;;;5062087;28;20217;-35
2023/10/13 11:51:09;;;;;;;11.77;4.03;;;19.80;99.90;;;;;;5062071;28;20048;-40
2023/10/13 11:53:35;;;;;;;15.32;3.88;;;19.80;99.90;;;;;;5061533;28;20053;-35
2023/10/13 11:56:01;;;;;;;9.50;2.80;;;19.80;99.90;;;;;;5062833;28;20080;-38
2023/10/13 11:58:29;;;;;;;8.85;3.65;;;19.80;99.90;;;;;;5060724;28;20101;-35
2023/10/13 12:01:19;;;;;;;9.10;2.97;;;19.80;99.90;;;;;;5064035;28;20048;-34
2023/10/13 12:09:29;;;;;;;12.60;3.00;;;19.90;99.90;;;;;;5061107;28;20055;-35
2023/10/13 12:12:00;;;;;;;5.72;2.97;;;19.90;99.90;;;;;;5057616;28;20549;-34
2023/10/13 12:14:31;;;;;;;9.05;2.65;;;19.90;99.90;;;;;;5055042;28;20052;-41
2023/10/13 12:17:03;;;;;;;13.18;3.28;;;19.90;99.90;;;;;;5067259;28;20131;-40
2023/10/13 12:19:29;;;;;;;13.02;3.60;;;19.90;99.90;;;;;;5065596;28;20052;-35
2023/10/13 12:21:56;;;;;;;7.35;3.15;;;19.90;99.90;;;;;;5048260;28;20053;-35
2023/10/13 12:27:00;;;;;;;9.95;3.10;;;19.90;99.90;;;;;;5081486;28;20109;-35
2023/10/13 12:29:29;;;;;;;14.50;3.45;;;19.90;99.90;;;;;;5072216;28;20052;-35
2023/10/13 12:32:09;;;;;;;10.60;3.20;;;19.90;99.90;;;;;;5062867;28;20044;-35
2023/10/13 12:54:04;;;;;;;8.27;3.47;;;20.20;99.90;;;;;;5055542;28;20515;-35
2023/10/13 12:56:30;;;;;;;12.15;3.47;;;20.10;99.90;;;;;;5053382;28;20134;-35
2023/10/13 12:58:56;;;;;;;9.75;3.50;;;20.10;99.90;;;;;;5045653;28;20148;-35
2023/10/13 13:01:25;;;;;;;10.05;2.50;;;20.10;99.90;;;;;;5050548;28;20049;-36
2023/10/13 13:03:58;;;;;;;13.50;3.50;;;20.10;99.90;;;;;;5055731;28;20074;-35
2023/10/13 13:06:25;;;;;;;10.15;3.25;;;20.20;99.90;;;;;;5057725;28;20405;-35
2023/10/13 13:08:55;;;;;;;13.80;3.20;;;20.30;99.90;;;;;;5057224;28;20686;-35
2023/10/13 13:11:22;;;;;;;9.60;3.22;;;20.30;99.90;;;;;;5058186;28;20417;-35
2023/10/13 13:13:47;;;;;;;9.60;3.10;;;20.20;99.90;;;;;;5058973;28;20061;-35
2023/10/13 13:16:30;;;;;;;12.18;3.55;;;20.20;99.90;;;;;;5041165;28;20456;-35
2023/10/13 13:18:55;;;;;;;;;;;20.20;99.90;;;;;;5058282;28;20060;-35
2023/10/13 13:21:23;;;;;;;9.00;3.80;;;20.10;99.90;;;;;;5058614;28;20291;-35
2023/10/13 13:23:55;;;;;;;9.55;3.35;;;20.00;99.90;;;;;;5074517;28;20047;-42
2023/10/13 13:26:24;;;;;;;7.15;3.60;;;19.90;99.90;;;;;;5074138;28;20056;-35
2023/10/13 13:28:50;;;;;;;12.80;3.45;;;19.70;99.90;;;;;;5080256;28;20554;-35
2023/10/13 13:31:26;;;;;;;9.70;3.33;;;19.60;99.90;;;;;;5085466;28;20163;-35
2023/10/13 13:33:52;;;;;;;14.50;3.95;;;19.50;99.90;;;;;;5087648;28;20111;-35
2023/10/13 13:36:19;;;;;;;12.77;3.47;;;19.40;99.90;;;;;;5099899;28;20044;-35
2023/10/13 13:38:50;;;;;;;10.10;3.72;;;19.30;99.90;;;;;;5075061;28;20052;-35
2023/10/13 13:41:19;;;;;;;14.35;4.10;;;19.20;99.90;;;;;;5083767;28;20398;-35
2023/10/13 13:43:55;;;;;;;11.32;3.67;;;19.10;99.90;;;;;;5078458;28;20060;-35
2023/10/13 13:46:24;;;;;;;10.88;3.70;;;19.10;99.90;;;;;;5078354;28;20052;-35
2023/10/13 13:48:57;;;;;;;8.98;3.55;;;19.00;99.90;;;;;;5080057;28;20096;-35
2023/10/13 13:51:27;;;;;;;9.52;3.60;;;18.90;99.90;;;;;;5080336;28;20084;-35
2023/10/13 13:53:54;;;;;;;13.35;3.13;;;18.90;99.90;;;;;;5081462;28;20076;-36
2023/10/13 13:56:20;;;;;;;12.45;3.63;;;18.90;99.90;;;;;;5079812;28;20511;-34
2023/10/13 13:58:47;;;;;;;8.82;3.60;;;18.90;99.90;;;;;;5079074;28;20055;-35
2023/10/13 14:01:14;;;;;;;15.07;4.30;;;18.80;99.90;;;;;;5082472;28;20075;-34
2023/10/13 14:03:47;;;;;;;12.30;4.13;;;18.80;99.90;;;;;;5076992;28;20503;-34
2023/10/13 14:06:38;;;;;;;15.88;4.18;;;18.80;99.90;;;;;;5073374;28;20092;-35
2023/10/13 14:09:05;;;;;;;9.95;4.05;;;18.80;99.90;;;;;;5078834;28;20137;-35
2023/10/13 14:14:04;;;;;;;;;;;18.80;99.90;;;;;;5080625;28;20052;-35
2023/10/13 14:16:33;;;;;;;10.10;4.50;;;18.80;99.90;;;;;;5088453;28;19916;-35
2023/10/13 14:19:01;;;;;;;9.93;4.10;;;18.80;99.90;;;;;;5062050;28;20049;-35
2023/10/13 14:21:27;;;;;;;11.93;4.20;;;18.80;99.90;;;;;;5084317;28;20052;-35
2023/10/13 14:23:53;;;;;;;12.77;4.32;;;18.80;99.90;;;;;;5076518;28;20052;-35
2023/10/13 14:26:21;;;;;;;10.75;3.75;;;18.80;99.90;;;;;;5063130;28;20048;-35
2023/10/13 14:29:08;;;;;;;13.65;4.35;;;18.80;99.90;;;;;;5062276;28;20552;-34
2023/10/13 14:31:39;;;;;;;13.98;4.72;;;18.80;99.90;;;;;;5060829;28;20055;-56
2023/10/13 14:34:06;;;;;;;11.40;4.25;;;18.80;99.90;;;;;;5067544;28;20103;-35
2023/10/13 14:36:35;;;;;;;9.55;4.10;;;18.80;99.90;;;;;;5062058;28;20111;-35
2023/10/13 14:39:02;;;;;;;10.13;3.50;;;18.80;99.90;;;;;;5057968;28;20072;-35
2023/10/13 14:41:27;;;;;;;15.10;4.32;;;18.80;99.90;;;;;;5061253;28;20048;-35
2023/10/13 14:43:56;;;;;;;10.82;4.10;;;18.80;99.90;;;;;;5062137;28;20045;-42
2023/10/13 14:46:25;;;;;;;12.80;4.80;;;18.80;99.90;;;;;;5066387;28;20103;-35
2023/10/13 14:48:54;;;;;;;12.52;4.63;;;18.80;99.90;;;;;;5061411;28;20517;-34
2023/10/13 14:51:20;;;;;;;11.93;5.25;;;18.70;99.90;;;;;;5065958;28;20044;-35
2023/10/13 14:53:46;;;;;;;12.82;4.25;;;18.70;99.90;;;;;;5065588;28;20056;-35
2023/10/13 14:56:13;;;;;;;11.52;4.13;;;18.70;99.90;;;;;;5059722;28;20053;-39
2023/10/13 14:58:42;;;;;;;11.27;4.10;;;18.60;99.90;;;;;;5039484;28;20131;-35
2023/10/13 15:01:15;;;;;;;11.50;4.75;;;18.60;99.90;;;;;;5045066;28;20053;-34
2023/10/13 15:03:46;;;;;;;13.45;4.55;;;18.50;99.90;;;;;;5060072;28;20554;-35
2023/10/13 15:06:40;;;;;;;12.23;4.70;;;18.40;99.90;;;;;;5047109;28;20063;-36
2023/10/13 15:09:10;;;;;;;15.13;5.22;;;18.40;99.90;;;;;;5060513;28;20498;-35
2023/10/13 15:11:36;;;;;;;11.27;4.25;;;18.30;99.90;;;;;;5059007;28;20057;-35
2023/10/13 15:14:08;;;;;;;10.27;4.82;;;18.20;99.90;;;;;;5055706;28;20687;-35
2023/10/13 15:16:34;;;;;;;10.57;4.78;;;18.10;99.90;;;;;;5065822;28;20131;-46
2023/10/13 15:19:02;;;;;;;11.00;4.95;;;18.10;99.90;;;;;;5062228;28;20188;-35
2023/10/13 15:21:36;;;;;;;10.63;4.82;;;18.00;99.90;;;;;;5071009;28;20142;-35
2023/10/13 15:24:16;;;;;;;12.80;4.93;;;18.00;99.90;;;;;;5036856;28;1112350;-35
2023/10/13 15:26:47;;;;;;;9.90;4.35;;;18.00;99.90;;;;;;5087427;28;21842;-35
2023/10/13 15:29:16;;;;;;;12.57;4.25;;;18.00;99.90;;;;;;5086174;28;20048;-35
2023/10/13 15:34:37;;;;;;;13.60;5.47;;;17.90;99.90;;;;;;5037241;28;20517;-44
2023/10/13 15:37:05;;;;;;;11.43;4.07;;;17.90;99.90;;;;;;5053448;28;20054;-35
2023/10/13 15:39:31;;;;;;;12.07;3.97;;;17.90;99.90;;;;;;5059361;28;20162;-35
2023/10/13 15:42:02;;;;;;;9.10;4.43;;;17.80;99.90;;;;;;5076211;28;20060;-35
2023/10/13 15:44:31;;;;;;;10.98;3.42;;;17.80;99.90;;;;;;5070910;28;20059;-35
2023/10/13 15:46:59;;;;;;;14.23;3.88;;;17.80;99.90;;;;;;5058731;28;20053;-36
2023/10/13 15:49:27;;;;;;;13.45;3.20;;;17.70;99.90;;;;;;5061131;28;20429;-36
2023/10/13 15:51:56;;;;;;;8.23;2.38;;;17.80;99.90;;;;;;5075638;28;20129;-35
2023/10/13 15:54:23;;;;;;;8.55;3.25;;;17.80;99.90;;;;;;5067205;28;20079;-35
2023/10/13 15:56:54;;;;;;;5.03;1.80;;;17.80;99.90;;;;;;5063433;28;20512;-35
2023/10/13 15:59:22;;;;;;;5.85;1.83;;;17.80;99.90;;;;;;5070105;28;20050;-36
2023/10/13 16:01:48;;;;;;;5.53;1.80;;;17.80;99.90;;;;;;5061145;28;20060;-35
2023/10/13 16:04:15;;;;;;;6.60;1.95;;;17.80;99.90;;;;;;5060610;28;20044;-35
2023/10/13 16:06:41;;;;;;;7.93;2.38;;;17.80;99.90;;;;;;5047155;28;20300;-36
2023/10/13 16:09:14;;;;;;;5.40;2.28;;;17.70;99.90;;;;;;5078922;28;20100;-36
2023/10/13 16:11:43;;;;;;;7.82;2.92;;;17.70;99.90;;;;;;5077678;28;20056;-36
2023/10/13 16:14:17;;;;;;;11.23;3.40;;;17.70;99.90;;;;;;5063689;28;20509;-36
2023/10/13 16:16:48;;;;;;;10.77;3.70;;;17.70;99.90;;;;;;5056246;28;20063;-36
2023/10/13 16:19:22;;;;;;;9.18;3.58;;;17.60;99.90;;;;;;5055713;28;20140;-35
2023/10/13 16:21:49;;;;;;;4.30;2.25;;;17.60;99.90;;;;;;5063000;28;20048;-35
2023/10/13 16:24:17;;;;;;;8.15;3.42;;;17.60;99.90;;;;;;5078141;28;20102;-35
2023/10/13 16:26:52;;;;;;;9.55;3.95;;;17.60;99.90;;;;;;5079689;28;20071;-35
2023/10/13 16:29:21;;;;;;;10.82;4.30;;;17.60;99.90;;;;;;5057758;28;20101;-35
2023/10/13 16:31:47;;;;;;;10.85;4.63;;;17.60;99.90;;;;;;5066845;28;20142;-35
2023/10/13 16:34:17;;;;;;;8.95;4.60;;;17.60;99.90;;;;;;5079822;28;20506;-35
2023/10/13 16:36:44;;;;;;;9.43;4.05;;;17.60;99.90;;;;;;5070349;28;20040;-35
2023/10/13 16:39:11;;;;;;;14.38;4.63;;;17.60;99.90;;;;;;5055488;28;20056;-35